Time;durP1;ratioP1;P1;durP2;ratioP2;P2;SDS_P1;SDS_P2;PMS_P1;PMS_P2;Temp;Humidity;BMP_temperature;BMP_pressure;BME280_temperature;BME280_humidity;BME280_pressure;Samples;Min_cycle;Max_cycle;Signal;HPM_P1;HPM_P2
2022/11/22 00:00:14;;;;;;;6.95;2.72;;;7.10;99.90;;;;;;5071171;28;20309;-53
2022/11/22 00:02:40;;;;;;;11.32;2.50;;;7.10;99.90;;;;;;5073511;28;20204;-53
2022/11/22 00:05:06;;;;;;;4.47;2.63;;;7.20;99.90;;;;;;5075359;28;20552;-53
2022/11/22 00:07:31;;;;;;;9.18;2.25;;;7.20;99.90;;;;;;5074879;28;20569;-53
2022/11/22 00:09:57;;;;;;;6.50;2.70;;;7.20;99.90;;;;;;5074845;28;20162;-52
2022/11/22 00:12:22;;;;;;;4.43;2.33;;;7.10;99.90;;;;;;5074712;28;20198;-53
2022/11/22 00:14:48;;;;;;;4.97;2.05;;;7.10;99.90;;;;;;5074253;28;20189;-53
2022/11/22 00:17:13;;;;;;;8.57;2.42;;;7.20;99.90;;;;;;5074836;28;20223;-52
2022/11/22 00:19:39;;;;;;;7.85;2.85;;;7.20;99.90;;;;;;5074667;28;20532;-50
2022/11/22 00:22:05;;;;;;;3.28;2.03;;;7.20;99.90;;;;;;5074635;28;20162;-53
2022/11/22 00:24:31;;;;;;;4.90;2.15;;;7.00;99.90;;;;;;5074692;28;20197;-52
2022/11/22 00:26:57;;;;;;;6.75;2.40;;;7.20;99.90;;;;;;5074448;28;20785;-53
2022/11/22 00:29:23;;;;;;;5.32;2.67;;;7.10;99.90;;;;;;5074488;28;20177;-52
2022/11/22 00:31:48;;;;;;;4.95;2.00;;;7.20;99.90;;;;;;5074224;28;20653;-53
2022/11/22 00:34:14;;;;;;;2.95;1.90;;;7.20;99.90;;;;;;5074363;28;20188;-54
2022/11/22 00:36:39;;;;;;;4.68;1.90;;;7.20;99.90;;;;;;5074816;28;20224;-46
2022/11/22 00:39:05;;;;;;;4.22;1.95;;;7.10;99.90;;;;;;5074734;28;20245;-54
2022/11/22 00:41:31;;;;;;;4.10;1.60;;;7.00;99.90;;;;;;5074123;28;20196;-53
2022/11/22 00:43:56;;;;;;;3.30;1.70;;;7.10;99.90;;;;;;5074033;28;20169;-53
2022/11/22 00:46:22;;;;;;;5.47;1.50;;;7.10;99.90;;;;;;5074284;28;20173;-53
2022/11/22 00:48:47;;;;;;;2.03;1.42;;;7.20;99.90;;;;;;5073825;28;20170;-53
2022/11/22 00:51:13;;;;;;;3.45;1.55;;;7.10;99.90;;;;;;5074049;28;20197;-52
2022/11/22 00:53:38;;;;;;;2.88;1.30;;;7.30;99.90;;;;;;5074483;28;20188;-53
2022/11/22 00:56:04;;;;;;;2.67;1.50;;;7.30;99.90;;;;;;5074028;28;20204;-53
2022/11/22 00:58:29;;;;;;;3.92;1.60;;;7.30;99.90;;;;;;5074044;28;20207;-53
2022/11/22 01:00:55;;;;;;;4.25;1.38;;;7.20;99.90;;;;;;5073586;28;20226;-52
2022/11/22 01:03:22;;;;;;;3.17;1.30;;;7.30;99.90;;;;;;5073814;28;20221;-52
2022/11/22 01:05:47;;;;;;;3.67;1.92;;;7.30;99.90;;;;;;5073771;28;20205;-53
2022/11/22 01:08:13;;;;;;;6.05;2.50;;;7.30;99.90;;;;;;5073853;28;20170;-46
2022/11/22 01:10:38;;;;;;;7.43;3.30;;;7.40;99.90;;;;;;5074130;28;20209;-46
2022/11/22 01:13:04;;;;;;;8.88;3.10;;;7.50;99.90;;;;;;5073222;28;20174;-46
2022/11/22 01:15:30;;;;;;;10.95;3.65;;;7.40;99.90;;;;;;5055883;28;20766;-46
2022/11/22 01:17:56;;;;;;;9.00;3.30;;;7.50;99.90;;;;;;5073892;28;20192;-46
2022/11/22 01:20:21;;;;;;;7.95;3.55;;;7.40;99.90;;;;;;5073507;28;20681;-46
2022/11/22 01:22:48;;;;;;;7.15;2.55;;;7.40;99.90;;;;;;5073587;28;20167;-46
2022/11/22 01:25:13;;;;;;;11.65;3.08;;;7.40;99.90;;;;;;5073529;28;20207;-46
2022/11/22 01:27:39;;;;;;;14.52;3.47;;;7.40;99.90;;;;;;5073759;28;20166;-46
2022/11/22 01:30:05;;;;;;;12.60;3.00;;;7.40;99.90;;;;;;5073198;28;20166;-46
2022/11/22 01:32:31;;;;;;;12.80;3.95;;;7.30;99.90;;;;;;5072962;28;20771;-47
2022/11/22 01:34:56;;;;;;;15.27;5.07;;;7.30;99.90;;;;;;5073437;28;20224;-54
2022/11/22 01:37:22;;;;;;;10.10;4.70;;;7.30;99.90;;;;;;5055317;28;20526;-46
2022/11/22 01:39:47;;;;;;;22.77;4.93;;;7.30;99.90;;;;;;5073298;28;20296;-46
2022/11/22 01:42:13;;;;;;;19.35;6.35;;;7.20;99.90;;;;;;5073003;28;20231;-47
2022/11/22 01:44:40;;;;;;;15.85;4.40;;;7.20;99.90;;;;;;5073495;28;20177;-47
2022/11/22 01:47:18;;;;;;;16.40;4.20;;;7.20;99.90;;;;;;5073491;28;20247;-47
2022/11/22 01:49:51;;;;;;;11.48;3.97;;;7.20;99.90;;;;;;5073067;28;20256;-47
2022/11/22 01:52:23;;;;;;;6.57;2.35;;;7.10;99.90;;;;;;5072808;28;20292;-47
2022/11/22 01:54:55;;;;;;;5.05;2.08;;;7.10;99.90;;;;;;5072864;28;20166;-47
2022/11/22 01:57:27;;;;;;;6.60;1.65;;;7.10;99.90;;;;;;5072871;28;20170;-47
2022/11/22 01:59:58;;;;;;;11.52;2.38;;;7.20;99.90;;;;;;5072672;28;20209;-47
2022/11/22 02:02:24;;;;;;;10.52;2.40;;;7.00;99.90;;;;;;5072684;28;20227;-47
2022/11/22 02:04:52;;;;;;;9.43;2.25;;;7.10;99.90;;;;;;5072653;28;20284;-48
2022/11/22 02:07:24;;;;;;;16.13;2.78;;;7.00;99.90;;;;;;5072661;28;20212;-47
2022/11/22 02:09:51;;;;;;;10.38;2.35;;;7.00;99.90;;;;;;5072643;28;20174;-47
2022/11/22 02:12:20;;;;;;;8.90;1.77;;;7.00;99.90;;;;;;5072454;28;20198;-47
2022/11/22 02:14:47;;;;;;;9.30;2.15;;;7.10;99.90;;;;;;5072507;28;20162;-46
2022/11/22 02:17:12;;;;;;;8.40;2.55;;;7.00;99.90;;;;;;5071933;28;20161;-46
2022/11/22 02:19:42;;;;;;;7.65;1.70;;;7.00;99.90;;;;;;5072702;28;20587;-47
2022/11/22 02:22:35;;;;;;;8.45;2.25;;;7.00;99.90;;;;;;5072911;28;20196;-47
2022/11/22 02:25:15;;;;;;;10.48;2.13;;;7.00;99.90;;;;;;5071473;28;20166;-46
2022/11/22 02:27:41;;;;;;;7.63;1.90;;;7.00;99.90;;;;;;5072311;28;20162;-49
2022/11/22 02:30:07;;;;;;;10.88;1.65;;;6.90;99.90;;;;;;5072603;28;20494;-48
2022/11/22 02:32:33;;;;;;;5.38;1.88;;;7.00;99.90;;;;;;5072091;28;20768;-47
2022/11/22 02:34:58;;;;;;;11.10;2.92;;;6.90;99.90;;;;;;5072185;28;20241;-50
2022/11/22 02:37:28;;;;;;;12.40;3.25;;;6.90;99.90;;;;;;5054242;28;20534;-46
2022/11/22 02:40:06;;;;;;;8.95;2.65;;;6.80;99.90;;;;;;5054176;28;20173;-51
2022/11/22 02:42:32;;;;;;;13.82;2.47;;;6.80;99.90;;;;;;5072264;28;20256;-50
2022/11/22 02:44:58;;;;;;;15.23;2.92;;;6.90;99.90;;;;;;5072015;28;20261;-47
2022/11/22 02:47:23;;;;;;;10.10;3.33;;;6.80;99.90;;;;;;5071762;28;20173;-46
2022/11/22 02:49:52;;;;;;;16.02;3.30;;;6.70;99.90;;;;;;5071917;28;20173;-47
2022/11/22 02:52:17;;;;;;;21.50;3.80;;;6.80;99.90;;;;;;5071691;28;20541;-51
2022/11/22 02:54:44;;;;;;;20.13;2.92;;;6.80;99.90;;;;;;5053936;28;20191;-53
2022/11/22 02:57:09;;;;;;;9.05;3.33;;;6.80;99.90;;;;;;5072302;28;20173;-53
2022/11/22 02:59:35;;;;;;;16.73;3.92;;;6.80;99.90;;;;;;5054239;28;20561;-54
2022/11/22 03:02:00;;;;;;;15.02;3.78;;;6.80;99.90;;;;;;5071799;28;20174;-53
2022/11/22 03:04:26;;;;;;;11.50;3.17;;;6.80;99.90;;;;;;5071827;28;20173;-53
2022/11/22 03:06:57;;;;;;;20.92;4.47;;;6.80;99.90;;;;;;5071813;28;20174;-53
2022/11/22 03:09:24;;;;;;;25.70;4.68;;;6.80;99.90;;;;;;5071368;28;20177;-53
2022/11/22 03:11:50;;;;;;;10.77;3.50;;;6.80;99.90;;;;;;5071302;28;20205;-53
2022/11/22 03:14:16;;;;;;;13.38;3.00;;;6.80;99.90;;;;;;5071636;28;20235;-53
2022/11/22 03:16:42;;;;;;;13.85;3.63;;;6.80;99.90;;;;;;5071618;28;20626;-53
2022/11/22 03:19:09;;;;;;;16.08;4.38;;;6.80;99.90;;;;;;5072002;28;20166;-53
2022/11/22 03:21:35;;;;;;;20.25;3.90;;;6.80;99.90;;;;;;5072025;28;20173;-53
2022/11/22 03:24:00;;;;;;;17.98;3.38;;;6.70;99.90;;;;;;5053194;28;20652;-53
2022/11/22 03:26:26;;;;;;;17.02;5.00;;;6.70;99.90;;;;;;5071248;28;20185;-53
2022/11/22 03:28:51;;;;;;;20.42;3.17;;;6.70;99.90;;;;;;5070978;28;20779;-53
2022/11/22 03:31:17;;;;;;;15.75;3.10;;;6.60;99.90;;;;;;5071541;28;20262;-53
2022/11/22 03:33:43;;;;;;;14.15;2.17;;;6.60;99.90;;;;;;5071484;28;20158;-53
2022/11/22 03:36:08;;;;;;;12.82;3.08;;;6.60;99.90;;;;;;5073665;28;20193;-53
2022/11/22 03:38:34;;;;;;;8.50;2.42;;;6.60;99.90;;;;;;5075626;28;20188;-53
2022/11/22 03:41:00;;;;;;;9.60;2.72;;;6.60;99.90;;;;;;5075393;28;20166;-47
2022/11/22 03:43:26;;;;;;;7.97;2.40;;;6.60;99.90;;;;;;5075365;28;20181;-46
2022/11/22 03:45:51;;;;;;;11.90;2.40;;;6.60;99.90;;;;;;5075367;28;20166;-46
2022/11/22 03:48:17;;;;;;;15.60;3.10;;;6.60;99.90;;;;;;5075260;28;20166;-47
2022/11/22 03:50:43;;;;;;;11.60;2.47;;;6.60;99.90;;;;;;5073757;28;20218;-46
2022/11/22 03:53:09;;;;;;;13.13;2.30;;;6.60;99.90;;;;;;5055471;28;20588;-46
2022/11/22 03:55:34;;;;;;;12.30;2.13;;;6.60;99.90;;;;;;5055543;28;20175;-47
2022/11/22 03:58:00;;;;;;;11.82;2.55;;;6.60;99.90;;;;;;5054975;28;20254;-46
2022/11/22 04:00:26;;;;;;;13.45;3.10;;;6.60;99.90;;;;;;5054603;28;20229;-46
2022/11/22 04:02:51;;;;;;;13.10;2.58;;;6.60;99.90;;;;;;5055116;28;20162;-46
2022/11/22 04:05:17;;;;;;;14.48;2.63;;;6.60;99.90;;;;;;5054905;28;20167;-46
2022/11/22 04:07:42;;;;;;;8.52;2.78;;;6.70;99.90;;;;;;5054898;28;20162;-46
2022/11/22 04:10:08;;;;;;;11.60;2.35;;;6.70;99.90;;;;;;5055224;28;20212;-46
2022/11/22 04:12:34;;;;;;;11.00;2.40;;;6.70;99.90;;;;;;5054719;28;20533;-46
2022/11/22 04:15:06;;;;;;;12.23;2.63;;;6.70;99.90;;;;;;5054954;28;20166;-46
2022/11/22 04:17:46;;;;;;;12.40;3.75;;;6.70;99.90;;;;;;5054574;28;20166;-47
2022/11/22 04:23:08;;;;;;;12.60;4.05;;;6.70;99.90;;;;;;5023911;28;20209;-47
2022/11/22 04:25:36;;;;;;;20.95;4.43;;;6.70;99.90;;;;;;5054580;28;20227;-46
2022/11/22 04:28:03;;;;;;;23.73;4.93;;;6.60;99.90;;;;;;5054463;28;20185;-47
2022/11/22 04:33:14;;;;;;;20.95;5.40;;;6.50;99.90;;;;;;5054163;28;20181;-46
2022/11/22 04:35:41;;;;;;;17.92;4.70;;;6.50;99.90;;;;;;5054470;28;20246;-47
2022/11/22 04:38:07;;;;;;;20.00;4.13;;;6.50;99.90;;;;;;5054990;28;20183;-46
2022/11/22 04:40:32;;;;;;;18.98;4.03;;;6.50;99.90;;;;;;5054340;28;20702;-46
2022/11/22 04:45:43;;;;;;;10.40;2.58;;;6.40;99.90;;;;;;5054035;28;20254;-46
2022/11/22 04:48:11;;;;;;;12.27;2.55;;;6.40;99.90;;;;;;5053413;28;20627;-46
2022/11/22 04:53:21;;;;;;;11.45;2.47;;;6.40;99.90;;;;;;5054320;28;20651;-46
2022/11/22 04:55:47;;;;;;;10.93;2.78;;;6.40;99.90;;;;;;5053989;28;20205;-45
2022/11/22 04:58:13;;;;;;;10.65;1.75;;;6.40;99.90;;;;;;5053897;28;20174;-47
2022/11/22 05:00:39;;;;;;;6.97;1.70;;;6.40;99.90;;;;;;5054066;28;20248;-46
2022/11/22 05:03:05;;;;;;;14.52;2.70;;;6.30;99.90;;;;;;5054151;28;20537;-47
2022/11/22 05:05:34;;;;;;;9.77;2.50;;;6.30;99.90;;;;;;5053857;28;20162;-46
2022/11/22 05:07:59;;;;;;;14.43;2.20;;;6.40;99.90;;;;;;5053675;28;20614;-46
2022/11/22 05:10:25;;;;;;;11.48;2.88;;;6.30;99.90;;;;;;5053652;28;20198;-46
2022/11/22 05:12:51;;;;;;;8.15;2.15;;;6.20;99.90;;;;;;5053763;28;20715;-46
2022/11/22 05:15:17;;;;;;;8.38;2.20;;;6.20;99.90;;;;;;5053616;28;20649;-47
2022/11/22 05:17:42;;;;;;;10.45;2.47;;;6.20;99.90;;;;;;5053694;28;20167;-46
2022/11/22 05:20:09;;;;;;;14.75;3.17;;;6.10;99.90;;;;;;5053922;28;20171;-46
2022/11/22 05:25:19;;;;;;;12.93;2.97;;;6.00;99.90;;;;;;5053769;28;20181;-46
2022/11/22 05:27:45;;;;;;;11.15;2.50;;;6.00;99.90;;;;;;5053432;28;20175;-46
2022/11/22 05:30:10;;;;;;;12.57;2.88;;;6.00;99.90;;;;;;5053367;28;20228;-46
2022/11/22 05:32:36;;;;;;;8.90;2.75;;;6.00;99.90;;;;;;5053732;28;20684;-47
2022/11/22 05:35:02;;;;;;;6.32;1.95;;;5.90;99.90;;;;;;5053561;28;20684;-46
2022/11/22 05:37:28;;;;;;;13.90;2.78;;;5.90;99.90;;;;;;5053114;28;20580;-47
2022/11/22 05:39:54;;;;;;;8.57;2.95;;;5.90;99.90;;;;;;5053289;28;20219;-46
2022/11/22 05:42:20;;;;;;;9.95;3.17;;;5.90;99.90;;;;;;5053152;28;20178;-47
2022/11/22 05:44:45;;;;;;;12.63;3.20;;;5.80;99.90;;;;;;5052962;28;20297;-47
2022/11/22 05:47:11;;;;;;;11.20;2.85;;;5.90;99.90;;;;;;5052927;28;20221;-47
2022/11/22 05:49:37;;;;;;;12.02;2.50;;;5.90;99.90;;;;;;5053225;28;20224;-47
2022/11/22 05:52:03;;;;;;;20.38;3.50;;;5.90;99.90;;;;;;5052623;28;20209;-46
2022/11/22 05:54:29;;;;;;;11.50;2.65;;;5.80;99.90;;;;;;5052954;28;20735;-46
2022/11/22 05:56:55;;;;;;;11.25;2.88;;;5.90;99.90;;;;;;5052806;28;20213;-47
2022/11/22 05:59:20;;;;;;;12.13;3.55;;;5.90;99.90;;;;;;5052550;28;20682;-47
2022/11/22 06:01:46;;;;;;;16.38;4.35;;;5.90;99.90;;;;;;5052700;28;20630;-47
2022/11/22 06:04:12;;;;;;;16.33;4.20;;;5.80;99.90;;;;;;5052799;28;20184;-46
2022/11/22 06:06:37;;;;;;;11.65;2.83;;;5.80;99.90;;;;;;5053016;28;20166;-46
2022/11/22 06:09:03;;;;;;;15.07;3.15;;;5.80;99.90;;;;;;5052592;28;20171;-47
2022/11/22 06:11:29;;;;;;;17.75;3.05;;;5.70;99.90;;;;;;5052455;28;20618;-47
2022/11/22 06:13:58;;;;;;;6.55;1.88;;;5.70;99.90;;;;;;5052571;28;20258;-47
2022/11/22 06:16:25;;;;;;;14.27;3.05;;;5.70;99.90;;;;;;5052424;28;20197;-46
2022/11/22 06:18:52;;;;;;;8.82;3.20;;;5.80;99.90;;;;;;5052410;28;20163;-46
2022/11/22 06:21:23;;;;;;;8.73;2.35;;;5.80;99.90;;;;;;5052372;28;20163;-48
2022/11/22 06:23:49;;;;;;;14.38;2.42;;;5.80;99.90;;;;;;5052595;28;20228;-47
2022/11/22 06:26:16;;;;;;;9.90;2.80;;;5.80;99.90;;;;;;5034467;28;20257;-46
2022/11/22 06:28:43;;;;;;;26.30;10.75;;;5.80;99.90;;;;;;5052259;28;20537;-46
2022/11/22 06:31:10;;;;;;;17.67;4.60;;;5.80;99.90;;;;;;5052584;28;20333;-46
2022/11/22 06:33:35;;;;;;;11.23;2.60;;;5.70;99.90;;;;;;5052527;28;20174;-47
2022/11/22 06:36:09;;;;;;;10.90;2.05;;;5.70;99.90;;;;;;5052114;28;20537;-45
2022/11/22 06:38:35;;;;;;;10.20;3.50;;;5.80;99.90;;;;;;5052410;28;20626;-48
2022/11/22 06:41:03;;;;;;;10.43;2.53;;;5.70;99.90;;;;;;5051933;28;20249;-46
2022/11/22 06:43:31;;;;;;;12.52;2.30;;;5.70;99.90;;;;;;5051924;28;20169;-46
2022/11/22 06:45:57;;;;;;;10.70;4.03;;;5.80;99.90;;;;;;5052210;28;20182;-47
2022/11/22 06:48:24;;;;;;;11.35;2.30;;;5.70;99.90;;;;;;5051979;28;20169;-47
2022/11/22 06:50:50;;;;;;;7.20;2.05;;;5.80;99.90;;;;;;5051794;28;20213;-46
2022/11/22 06:53:15;;;;;;;9.45;2.20;;;5.80;99.90;;;;;;5051845;28;20171;-45
2022/11/22 06:55:41;;;;;;;8.13;2.60;;;5.80;99.90;;;;;;5051815;28;20194;-46
2022/11/22 06:58:06;;;;;;;5.10;2.33;;;5.70;99.90;;;;;;5052144;28;20174;-46
2022/11/22 07:00:32;;;;;;;7.65;2.20;;;5.70;99.90;;;;;;5051555;28;20297;-46
2022/11/22 07:02:58;;;;;;;6.07;2.25;;;5.70;99.90;;;;;;5051758;28;21111;-47
2022/11/22 07:05:23;;;;;;;10.25;2.38;;;5.80;99.90;;;;;;5051613;28;20173;-46
2022/11/22 07:07:49;;;;;;;11.82;2.88;;;5.80;99.90;;;;;;5051701;28;20175;-45
2022/11/22 07:10:14;;;;;;;6.70;2.30;;;5.80;99.90;;;;;;5051371;28;20202;-46
2022/11/22 07:12:40;;;;;;;9.77;2.35;;;5.80;99.90;;;;;;5051541;28;20217;-45
2022/11/22 07:15:06;;;;;;;10.32;2.33;;;5.80;99.90;;;;;;5052227;28;20258;-47
2022/11/22 07:17:31;;;;;;;11.60;2.13;;;5.80;99.90;;;;;;5051510;28;20634;-46
2022/11/22 07:19:57;;;;;;;7.35;2.35;;;5.80;99.90;;;;;;5051622;28;20166;-45
2022/11/22 07:22:22;;;;;;;10.20;2.80;;;5.70;99.90;;;;;;5051706;28;20174;-45
2022/11/22 07:24:48;;;;;;;9.05;2.22;;;5.70;99.90;;;;;;5051638;28;20167;-45
2022/11/22 07:27:14;;;;;;;6.10;2.13;;;5.80;99.90;;;;;;5051519;28;20204;-45
2022/11/22 07:29:40;;;;;;;18.02;4.43;;;5.80;99.90;;;;;;5051805;28;20220;-45
2022/11/22 07:32:05;;;;;;;17.00;2.63;;;5.70;99.90;;;;;;5051839;28;20198;-45
2022/11/22 07:34:31;;;;;;;16.55;3.40;;;5.80;99.90;;;;;;5051480;28;20685;-46
2022/11/22 07:36:57;;;;;;;13.52;3.95;;;5.80;99.90;;;;;;5051411;28;20583;-46
2022/11/22 07:39:22;;;;;;;8.60;2.70;;;5.80;99.90;;;;;;5051407;28;20169;-46
2022/11/22 07:41:48;;;;;;;10.40;2.22;;;5.70;99.90;;;;;;5051636;28;20191;-46
2022/11/22 07:44:13;;;;;;;8.52;2.50;;;5.80;99.90;;;;;;5061276;28;20174;-45
2022/11/22 07:46:39;;;;;;;9.93;2.40;;;5.70;99.90;;;;;;5057967;28;20171;-47
2022/11/22 07:49:05;;;;;;;7.32;2.25;;;5.70;99.90;;;;;;5050121;28;20265;-45
2022/11/22 07:51:30;;;;;;;17.17;5.85;;;5.70;99.90;;;;;;5049314;28;20206;-45
2022/11/22 07:53:56;;;;;;;13.88;4.32;;;5.70;99.90;;;;;;5049389;28;20220;-46
2022/11/22 07:56:22;;;;;;;9.35;2.25;;;5.60;99.90;;;;;;5049697;28;20680;-44
2022/11/22 07:58:48;;;;;;;8.40;2.67;;;5.60;99.90;;;;;;5049209;28;20167;-45
2022/11/22 08:01:16;;;;;;;18.83;5.90;;;5.70;99.90;;;;;;5049182;28;20222;-46
2022/11/22 08:03:42;;;;;;;9.20;3.42;;;5.80;99.90;;;;;;5049112;28;20173;-46
2022/11/22 08:06:09;;;;;;;9.43;3.35;;;5.70;99.90;;;;;;5049728;28;20166;-45
2022/11/22 08:08:36;;;;;;;6.93;2.63;;;5.70;99.90;;;;;;5049666;28;20257;-46
2022/11/22 08:11:03;;;;;;;7.72;2.00;;;5.80;99.90;;;;;;5049240;28;20202;-47
2022/11/22 08:13:29;;;;;;;6.80;2.35;;;5.90;99.90;;;;;;5049205;28;20531;-46
2022/11/22 08:15:59;;;;;;;11.60;2.53;;;6.10;99.90;;;;;;5049319;28;20232;-45
2022/11/22 08:18:25;;;;;;;10.43;1.60;;;6.10;99.90;;;;;;5048974;28;20178;-46
2022/11/22 08:20:50;;;;;;;6.00;1.92;;;6.30;99.90;;;;;;5049245;28;20167;-45
2022/11/22 08:23:16;;;;;;;7.20;2.20;;;6.30;99.90;;;;;;5050566;28;20183;-42
2022/11/22 08:25:42;;;;;;;6.43;2.03;;;6.50;99.90;;;;;;5053350;28;20463;-50
2022/11/22 08:28:07;;;;;;;4.20;1.70;;;6.50;99.90;;;;;;5052787;28;20270;-44
2022/11/22 08:30:33;;;;;;;9.32;2.65;;;6.50;99.90;;;;;;5053181;28;20171;-49
2022/11/22 08:32:58;;;;;;;8.15;2.13;;;6.50;99.90;;;;;;5052356;28;20178;-45
2022/11/22 08:35:24;;;;;;;5.45;2.38;;;6.60;99.90;;;;;;5052735;28;20253;-48
2022/11/22 08:37:54;;;;;;;7.75;2.33;;;6.80;99.90;;;;;;5052373;28;20181;-46
2022/11/22 08:40:19;;;;;;;2.60;1.42;;;6.80;99.90;;;;;;5052559;28;20265;-49
2022/11/22 08:42:45;;;;;;;6.72;2.10;;;6.90;99.90;;;;;;5052344;28;20246;-46
2022/11/22 08:45:11;;;;;;;6.50;2.38;;;6.90;99.90;;;;;;5034707;28;20178;-52
2022/11/22 08:47:36;;;;;;;6.85;1.80;;;6.80;99.90;;;;;;5052626;28;20167;-48
2022/11/22 08:50:02;;;;;;;8.57;2.00;;;6.80;99.90;;;;;;5052030;28;20169;-44
2022/11/22 08:52:27;;;;;;;5.88;1.98;;;6.70;99.90;;;;;;5052212;28;20206;-48
2022/11/22 08:54:53;;;;;;;7.22;2.28;;;6.60;99.90;;;;;;5051840;28;20179;-45
2022/11/22 08:57:19;;;;;;;7.72;1.75;;;6.60;99.90;;;;;;5052260;28;20253;-44
2022/11/22 08:59:44;;;;;;;5.22;1.73;;;6.60;99.90;;;;;;5052180;28;20250;-50
2022/11/22 09:02:10;;;;;;;5.97;2.20;;;6.50;99.90;;;;;;5034194;28;20221;-49
2022/11/22 09:04:36;;;;;;;7.78;2.20;;;6.50;99.90;;;;;;5052557;28;20163;-46
2022/11/22 09:07:01;;;;;;;7.75;1.90;;;6.40;99.90;;;;;;5052369;28;20187;-45
2022/11/22 09:09:27;;;;;;;6.63;2.22;;;6.50;99.90;;;;;;5051963;28;20661;-45
2022/11/22 09:11:52;;;;;;;7.70;2.00;;;6.60;99.90;;;;;;5051395;28;20543;-46
2022/11/22 09:14:18;;;;;;;8.30;2.63;;;6.80;99.90;;;;;;5050374;28;20159;-45
2022/11/22 09:16:43;;;;;;;12.27;2.22;;;7.00;99.90;;;;;;5050564;28;20297;-49
2022/11/22 09:19:09;;;;;;;5.03;1.80;;;7.20;99.90;;;;;;5050325;28;20216;-47
2022/11/22 09:21:35;;;;;;;9.40;2.47;;;9.30;99.90;;;;;;5050615;28;20186;-47
2022/11/22 09:24:00;;;;;;;6.47;2.05;;;7.50;99.90;;;;;;5050195;28;20220;-46
2022/11/22 09:26:26;;;;;;;8.93;2.25;;;7.60;99.90;;;;;;5050290;28;20183;-46
2022/11/22 09:28:52;;;;;;;9.40;1.80;;;7.70;99.90;;;;;;5050242;28;20614;-46
2022/11/22 09:31:21;;;;;;;7.50;2.03;;;7.80;99.90;;;;;;5050253;28;20222;-46
2022/11/22 09:33:48;;;;;;;4.28;1.73;;;7.90;99.90;;;;;;5050075;28;20171;-47
2022/11/22 09:36:20;;;;;;;6.28;2.67;;;7.90;99.90;;;;;;5051628;28;20196;-47
2022/11/22 09:38:45;;;;;;;10.20;1.98;;;7.80;99.90;;;;;;5051408;28;20534;-46
2022/11/22 09:41:13;;;;;;;4.78;2.00;;;7.70;99.90;;;;;;5051570;28;20163;-46
2022/11/22 09:43:54;;;;;;;5.57;1.60;;;7.60;99.90;;;;;;5051459;28;20163;-47
2022/11/22 09:46:36;;;;;;;6.00;1.65;;;7.50;99.90;;;;;;5051497;28;20179;-47
2022/11/22 09:49:19;;;;;;;3.25;1.60;;;7.50;99.90;;;;;;5051123;28;20174;-47
2022/11/22 09:51:56;;;;;;;6.85;1.88;;;7.70;99.90;;;;;;5051234;28;20206;-48
2022/11/22 09:54:26;;;;;;;10.07;2.50;;;7.80;99.90;;;;;;5051186;28;20224;-48
2022/11/22 09:56:58;;;;;;;8.52;2.03;;;7.90;99.90;;;;;;5050915;28;20177;-50
2022/11/22 09:59:30;;;;;;;6.07;1.85;;;7.70;99.90;;;;;;5050936;28;20163;-48
2022/11/22 10:02:07;;;;;;;4.70;1.67;;;7.60;99.90;;;;;;5051071;28;20177;-48
2022/11/22 10:04:33;;;;;;;5.75;1.50;;;7.50;99.90;;;;;;5051345;28;20177;-47
2022/11/22 10:07:04;;;;;;;11.00;2.50;;;7.50;99.90;;;;;;5050815;28;20166;-47
2022/11/22 10:09:48;;;;;;;5.25;2.00;;;7.40;99.90;;;;;;5050934;28;20170;-48
2022/11/22 10:12:31;;;;;;;8.38;2.83;;;7.40;99.90;;;;;;5050790;28;20220;-47
2022/11/22 10:15:09;;;;;;;4.75;1.70;;;7.50;99.90;;;;;;5050754;28;20634;-49
2022/11/22 10:17:46;;;;;;;4.57;1.90;;;7.50;99.90;;;;;;5051166;28;20521;-47
2022/11/22 10:20:26;;;;;;;9.88;2.53;;;7.60;99.90;;;;;;5050678;28;20245;-49
2022/11/22 10:22:52;;;;;;;6.10;2.10;;;7.60;99.90;;;;;;5050583;28;20171;-47
2022/11/22 10:25:18;;;;;;;4.53;1.75;;;7.70;99.90;;;;;;5050557;28;20552;-47
2022/11/22 10:27:48;;;;;;;6.05;1.83;;;7.80;99.90;;;;;;5050385;28;20595;-47
2022/11/22 10:30:19;;;;;;;7.10;2.05;;;7.80;99.90;;;;;;5050475;28;20520;-48
2022/11/22 10:33:18;;;;;;;5.57;2.20;;;7.80;99.90;;;;;;5050361;28;20269;-49
2022/11/22 10:35:58;;;;;;;4.07;1.77;;;7.90;99.90;;;;;;5009552;28;20266;-48
2022/11/22 10:38:52;;;;;;;5.65;1.50;;;7.90;99.90;;;;;;5050635;28;20205;-48
2022/11/22 10:41:23;;;;;;;5.07;1.65;;;8.00;99.90;;;;;;5050348;28;20175;-47
2022/11/22 10:44:04;;;;;;;6.90;2.20;;;8.00;99.90;;;;;;5050642;28;20167;-47
2022/11/22 10:46:51;;;;;;;7.32;2.25;;;8.10;99.90;;;;;;5049564;28;20171;-47
2022/11/22 10:49:25;;;;;;;12.02;2.67;;;8.10;99.90;;;;;;5050215;28;20186;-47
2022/11/22 10:52:24;;;;;;;5.00;1.60;;;8.20;99.90;;;;;;5049922;28;20218;-47
2022/11/22 10:55:35;;;;;;;11.40;1.35;;;8.30;99.90;;;;;;5050146;28;20182;-47
2022/11/22 10:58:25;;;;;;;4.65;1.70;;;8.30;99.90;;;;;;5012841;28;20191;-47
2022/11/22 11:01:05;;;;;;;4.88;1.63;;;8.80;99.90;;;;;;5050295;28;20593;-48
2022/11/22 11:03:35;;;;;;;4.45;2.10;;;8.80;99.90;;;;;;5050329;28;20162;-47
2022/11/22 11:06:12;;;;;;;3.10;1.60;;;8.90;99.90;;;;;;5049946;28;20177;-46
2022/11/22 11:08:51;;;;;;;3.10;1.88;;;8.90;99.90;;;;;;5049933;28;20680;-45
2022/11/22 11:11:17;;;;;;;2.28;1.00;;;8.80;99.90;;;;;;5032026;28;20639;-46
2022/11/22 11:13:51;;;;;;;3.60;1.23;;;8.60;99.90;;;;;;5049817;28;20181;-46
2022/11/22 11:16:24;;;;;;;2.83;1.55;;;8.80;99.90;;;;;;5031891;28;20194;-46
2022/11/22 11:18:55;;;;;;;3.17;1.67;;;8.80;99.90;;;;;;5049855;28;20503;-46
2022/11/22 11:21:21;;;;;;;3.75;1.98;;;8.80;99.90;;;;;;5049767;28;20565;-48
2022/11/22 11:23:47;;;;;;;4.88;1.25;;;8.80;99.90;;;;;;5049786;28;20224;-49
2022/11/22 11:26:29;;;;;;;3.25;1.75;;;8.80;99.90;;;;;;5049657;28;20182;-49
2022/11/22 11:29:15;;;;;;;3.33;1.10;;;8.80;99.90;;;;;;5049662;28;20201;-50
2022/11/22 11:31:45;;;;;;;5.85;1.35;;;8.90;99.90;;;;;;5018444;28;20260;-48
2022/11/22 11:34:19;;;;;;;2.55;1.60;;;9.00;99.90;;;;;;5049749;28;20730;-49
2022/11/22 11:36:45;;;;;;;7.07;1.23;;;9.00;99.90;;;;;;5049649;28;20257;-49
2022/11/22 11:39:28;;;;;;;5.15;2.63;;;9.10;99.90;;;;;;5049647;28;20250;-48
2022/11/22 11:41:54;;;;;;;5.88;2.50;;;9.00;99.90;;;;;;5049562;28;20669;-48
2022/11/22 11:44:31;;;;;;;5.00;1.65;;;8.90;99.90;;;;;;5049603;28;20619;-48
2022/11/22 11:46:58;;;;;;;2.95;1.67;;;8.90;99.90;;;;;;5049514;28;20581;-48
2022/11/22 11:49:29;;;;;;;4.13;2.00;;;8.90;99.90;;;;;;5049844;28;20167;-48
2022/11/22 11:52:00;;;;;;;4.82;2.75;;;8.90;99.90;;;;;;5049430;28;20672;-48
2022/11/22 11:54:43;;;;;;;8.82;4.57;;;8.90;99.90;;;;;;5049519;28;20178;-48
2022/11/22 11:57:15;;;;;;;4.03;2.08;;;8.90;99.90;;;;;;5050873;28;20632;-48
2022/11/22 11:59:41;;;;;;;7.18;1.10;;;8.90;99.90;;;;;;5053259;28;20229;-48
2022/11/22 12:02:21;;;;;;;5.00;1.55;;;8.90;99.90;;;;;;5035959;28;20186;-48
2022/11/22 12:04:52;;;;;;;5.85;1.90;;;8.90;99.90;;;;;;5053198;28;20206;-48
2022/11/22 12:07:38;;;;;;;2.90;1.13;;;8.90;99.90;;;;;;5053265;28;20622;-48
2022/11/22 12:10:44;;;;;;;6.65;2.35;;;8.80;99.90;;;;;;5053444;28;20178;-51
2022/11/22 12:13:32;;;;;;;2.03;1.13;;;8.80;99.90;;;;;;5052844;28;20673;-50
2022/11/22 12:16:17;;;;;;;3.00;1.48;;;8.80;99.90;;;;;;5053121;28;20179;-48
2022/11/22 12:18:53;;;;;;;1.27;0.95;;;8.80;99.90;;;;;;5053167;28;20175;-49
2022/11/22 12:21:31;;;;;;;5.53;2.30;;;8.90;99.90;;;;;;5053179;28;20163;-49
2022/11/22 12:24:18;;;;;;;2.17;1.38;;;8.80;99.90;;;;;;5052962;28;20162;-48
2022/11/22 12:26:43;;;;;;;1.55;1.30;;;8.80;99.90;;;;;;5052747;28;20181;-49
2022/11/22 12:29:11;;;;;;;1.73;1.40;;;8.80;99.90;;;;;;5052847;28;20660;-49
2022/11/22 12:31:52;;;;;;;5.15;1.88;;;8.80;99.90;;;;;;5053011;28;20203;-48
2022/11/22 12:34:25;;;;;;;3.05;1.20;;;8.80;99.90;;;;;;5052793;28;20249;-49
2022/11/22 12:36:55;;;;;;;2.55;1.10;;;8.80;99.90;;;;;;5052963;28;20206;-49
2022/11/22 12:39:26;;;;;;;3.85;1.67;;;8.70;99.90;;;;;;5052665;28;20174;-49
2022/11/22 12:42:16;;;;;;;7.40;3.28;;;8.80;99.90;;;;;;5052433;28;20166;-46
2022/11/22 12:44:50;;;;;;;2.65;2.08;;;8.70;99.90;;;;;;5052646;28;20174;-47
2022/11/22 12:47:21;;;;;;;1.95;1.35;;;8.70;99.90;;;;;;5052504;28;20638;-46
2022/11/22 12:50:01;;;;;;;1.48;0.77;;;8.70;99.90;;;;;;5052726;28;20522;-47
2022/11/22 12:52:40;;;;;;;6.15;1.77;;;8.70;99.90;;;;;;5052348;28;20206;-48
2022/11/22 12:55:21;;;;;;;2.85;0.93;;;8.70;99.90;;;;;;5052736;28;20588;-46
2022/11/22 12:58:12;;;;;;;1.67;1.10;;;8.70;99.90;;;;;;5052305;28;20634;-46
2022/11/22 13:00:55;;;;;;;1.63;1.15;;;8.70;99.90;;;;;;5051989;28;20226;-48
2022/11/22 13:03:30;;;;;;;1.30;0.88;;;8.60;99.90;;;;;;5052207;28;20731;-48
2022/11/22 13:05:58;;;;;;;1.20;1.10;;;8.60;99.90;;;;;;5052137;28;20635;-46
2022/11/22 13:08:34;;;;;;;1.50;0.73;;;8.60;99.90;;;;;;5051545;28;20250;-47
2022/11/22 13:11:28;;;;;;;1.77;1.20;;;8.60;99.90;;;;;;5052243;28;20185;-46
2022/11/22 13:14:11;;;;;;;1.67;1.55;;;8.70;99.90;;;;;;5052348;28;20170;-47
2022/11/22 13:16:36;;;;;;;1.90;1.48;;;8.70;99.90;;;;;;5052203;28;20277;-46